Time;durP1;ratioP1;P1;durP2;ratioP2;P2;SDS_P1;SDS_P2;PMS_P1;PMS_P2;Temp;Humidity;BMP_temperature;BMP_pressure;BME280_temperature;BME280_humidity;BME280_pressure;Samples;Min_cycle;Max_cycle;Signal;HPM_P1;HPM_P2
2023/07/14 00:00:27;;;;;;;;;;;;;;;19.61;53.58;100102.19;1083408;54;20016;-79
2023/07/14 00:01:28;;;;;;;;;;;;;;;19.52;53.62;100105.31;1083206;54;20069;-79
2023/07/14 00:02:31;;;;;;;;;;;;;;;19.44;53.56;100106.31;1083260;54;19950;-80
2023/07/14 00:03:32;;;;;;;;;;;;;;;19.38;53.66;100104.41;1082810;54;19970;-79
2023/07/14 00:04:36;;;;;;;;;;;;;;;19.32;53.54;100108.75;1083032;47;19954;-79
2023/07/14 00:05:38;;;;;;;;;;;;;;;19.33;53.09;100102.31;1083409;39;20052;-79
2023/07/14 00:06:42;;;;;;;;;;;;;;;19.41;52.66;100098.59;1082442;54;20746;-79
2023/07/14 00:07:43;;;;;;;;;;;;;;;19.42;53.05;100105.66;1083889;54;20006;-80
2023/07/14 00:08:47;;;;;;;;;;;;;;;19.38;53.13;100105.22;1084915;54;19950;-79
2023/07/14 00:09:50;;;;;;;;;;;;;;;19.40;52.90;100103.16;1083514;47;19947;-79
2023/07/14 00:10:55;;;;;;;;;;;;;;;19.40;52.67;100097.75;1082979;54;19946;-79
2023/07/14 00:11:56;;;;;;;;;;;;;;;19.36;52.89;100103.78;1083618;54;19951;-79
2023/07/14 00:13:00;;;;;;;;;;;;;;;19.28;53.62;100102.91;1083478;39;20520;-79
2023/07/14 00:14:01;;;;;;;;;;;;;;;19.25;54.24;100105.19;1083971;54;19946;-79
2023/07/14 00:15:04;;;;;;;;;;;;;;;19.17;54.43;100104.31;1084479;39;20555;-80
2023/07/14 00:16:09;;;;;;;;;;;;;;;19.14;54.25;100099.28;1083739;47;20481;-80
2023/07/14 00:17:14;;;;;;;;;;;;;;;19.09;55.00;100100.94;1083861;54;20046;-80
2023/07/14 00:18:17;;;;;;;;;;;;;;;19.09;54.87;100107.16;1083936;47;20016;-80
2023/07/14 00:19:21;;;;;;;;;;;;;;;19.11;54.98;100098.84;1084174;47;19957;-80
2023/07/14 00:20:23;;;;;;;;;;;;;;;19.10;55.38;100098.00;1083762;47;19981;-80
2023/07/14 00:21:25;;;;;;;;;;;;;;;19.15;54.85;100100.13;1083215;54;19947;-80
2023/07/14 00:22:29;;;;;;;;;;;;;;;19.14;54.69;100099.28;1083222;54;20004;-79
2023/07/14 00:23:29;;;;;;;;;;;;;;;19.13;55.08;100103.03;1083692;39;20848;-79
2023/07/14 00:24:33;;;;;;;;;;;;;;;19.12;55.11;100101.34;1082753;54;20016;-79
2023/07/14 00:25:36;;;;;;;;;;;;;;;19.11;55.02;100096.97;1082450;54;19972;-79
2023/07/14 00:26:40;;;;;;;;;;;;;;;19.10;54.97;100103.44;1083294;54;19962;-79
2023/07/14 00:27:41;;;;;;;;;;;;;;;19.16;54.38;100099.94;1083211;47;19947;-79
2023/07/14 00:28:45;;;;;;;;;;;;;;;19.20;54.59;100097.66;1083186;54;19951;-79
2023/07/14 00:29:46;;;;;;;;;;;;;;;19.25;54.42;100099.78;1083347;54;19947;-79
2023/07/14 00:30:51;;;;;;;;;;;;;;;19.27;54.28;100098.53;1082853;47;19954;-79
2023/07/14 00:31:51;;;;;;;;;;;;;;;19.35;53.77;100102.94;1082926;47;19946;-79
2023/07/14 00:32:57;;;;;;;;;;;;;;;19.40;53.70;100103.16;1082942;47;20537;-78
2023/07/14 00:33:57;;;;;;;;;;;;;;;19.43;53.56;100094.63;1084685;54;19950;-79
2023/07/14 00:34:58;;;;;;;;;;;;;;;19.44;53.86;100100.88;1084621;47;19958;-79
2023/07/14 00:36:02;;;;;;;;;;;;;;;19.40;53.84;100102.34;1084251;54;19953;-79
2023/07/14 00:37:03;;;;;;;;;;;;;;;19.41;53.54;100098.59;1083454;47;19954;-79
2023/07/14 00:38:06;;;;;;;;;;;;;;;19.44;53.52;100099.03;1083849;39;20589;-79
2023/07/14 00:39:07;;;;;;;;;;;;;;;19.44;53.28;100090.91;1082356;54;19954;-78
2023/07/14 00:40:12;;;;;;;;;;;;;;;19.45;53.72;100098.00;1082093;47;19946;-79
2023/07/14 00:41:21;;;;;;;;;;;;;;;19.52;53.42;100097.16;1081764;47;19950;-78
2023/07/14 00:42:22;;;;;;;;;;;;;;;19.55;53.00;100088.66;1081548;47;19958;-78
2023/07/14 00:43:24;;;;;;;;;;;;;;;19.55;53.39;100096.78;1081593;54;19966;-78
2023/07/14 00:44:27;;;;;;;;;;;;;;;19.58;53.08;100090.94;1081785;47;19950;-78
2023/07/14 00:45:29;;;;;;;;;;;;;;;19.59;53.16;100095.31;1081684;54;20046;-79
2023/07/14 00:46:34;;;;;;;;;;;;;;;19.59;52.96;100090.75;1081736;47;19950;-78
2023/07/14 00:47:34;;;;;;;;;;;;;;;19.59;53.12;100085.31;1081418;47;20576;-79
2023/07/14 00:48:38;;;;;;;;;;;;;;;19.60;53.11;100091.56;1081608;47;19994;-78
2023/07/14 00:49:40;;;;;;;;;;;;;;;19.66;52.97;100090.75;1081545;54;19977;-78
2023/07/14 00:50:45;;;;;;;;;;;;;;;19.73;53.00;100088.06;1081643;54;19981;-78
2023/07/14 00:51:46;;;;;;;;;;;;;;;19.74;52.80;100087.84;1082288;54;20034;-78
2023/07/14 00:52:49;;;;;;;;;;;;;;;19.77;52.93;100087.44;1082133;54;19950;-79
2023/07/14 00:53:51;;;;;;;;;;;;;;;19.79;52.71;100084.53;1082158;47;19946;-78
2023/07/14 00:54:55;;;;;;;;;;;;;;;19.79;53.06;100090.78;1082003;54;19954;-78
2023/07/14 00:55:58;;;;;;;;;;;;;;;19.80;52.76;100087.03;1081541;47;20054;-78
2023/07/14 00:57:04;;;;;;;;;;;;;;;19.80;52.93;100084.34;1081907;54;19947;-78
2023/07/14 00:58:12;;;;;;;;;;;;;;;19.79;52.88;100090.78;1082286;39;20510;-77
2023/07/14 00:59:16;;;;;;;;;;;;;;;19.78;52.67;100086.41;1081841;54;19954;-78
2023/07/14 01:00:20;;;;;;;;;;;;;;;19.75;52.87;100086.00;1082435;54;19951;-78
2023/07/14 01:01:25;;;;;;;;;;;;;;;19.74;52.79;100073.47;1081778;54;20030;-78
2023/07/14 01:02:26;;;;;;;;;;;;;;;19.74;52.70;100085.13;1081601;54;19946;-78
2023/07/14 01:03:26;;;;;;;;;;;;;;;19.68;52.45;100080.53;1082014;54;19974;-78
2023/07/14 01:04:31;;;;;;;;;;;;;;;19.64;52.79;100077.41;1082230;47;20997;-78
2023/07/14 01:05:32;;;;;;;;;;;;;;;19.69;52.61;100078.69;1082666;39;20401;-79
2023/07/14 01:06:38;;;;;;;;;;;;;;;19.70;52.59;100077.59;1081863;47;19957;-78
2023/07/14 01:07:41;;;;;;;;;;;;;;;19.69;52.78;100076.78;1081608;54;19981;-79
2023/07/14 01:08:56;;;;;;;;;;;;;;;19.66;53.24;100074.47;1082092;39;20686;-78
2023/07/14 01:10:00;;;;;;;;;;;;;;;19.60;53.18;100062.56;1081620;54;19975;-79
2023/07/14 01:11:01;;;;;;;;;;;;;;;19.51;53.65;100071.09;1082548;39;20364;-78
2023/07/14 01:12:08;;;;;;;;;;;;;;;19.50;53.32;100064.84;1081661;47;20049;-78
2023/07/14 01:13:09;;;;;;;;;;;;;;;19.50;53.45;100067.56;1081965;54;19951;-78
2023/07/14 01:14:16;;;;;;;;;;;;;;;19.48;53.19;100065.03;1081914;47;19954;-78
2023/07/14 01:15:17;;;;;;;;;;;;;;;19.41;53.92;100068.78;1084612;47;19954;-78
2023/07/14 01:16:20;;;;;;;;;;;;;;;19.37;53.46;100068.31;1085901;54;19950;-78
2023/07/14 01:17:22;;;;;;;;;;;;;;;19.37;53.38;100062.91;1086123;47;19951;-79
2023/07/14 01:18:26;;;;;;;;;;;;;;;19.40;53.59;100065.22;1085677;47;19962;-78
2023/07/14 01:19:32;;;;;;;;;;;;;;;19.39;53.51;100066.25;1086042;54;19986;-78
2023/07/14 01:20:35;;;;;;;;;;;;;;;19.40;53.26;100065.22;1085443;54;19951;-79
2023/07/14 01:21:39;;;;;;;;;;;;;;;19.37;53.37;100070.22;1082594;47;19946;-79
2023/07/14 01:22:46;;;;;;;;;;;;;;;19.37;53.42;100072.91;1082272;47;19971;-79
2023/07/14 01:23:59;;;;;;;;;;;;;;;19.37;53.67;100065.63;1082037;54;20850;-78
2023/07/14 01:25:05;;;;;;;;;;;;;;;19.39;53.29;100063.53;1081743;47;20703;-79
2023/07/14 01:26:16;;;;;;;;;;;;;;;19.33;53.85;100065.19;1081507;47;19958;-79
2023/07/14 01:27:20;;;;;;;;;;;;;;;19.24;54.40;100068.28;1081749;47;20438;-78
2023/07/14 01:28:23;;;;;;;;;;;;;;;19.05;54.97;100064.41;1081806;54;19947;-78
2023/07/14 01:29:24;;;;;;;;;;;;;;;18.96;55.43;100063.75;1081883;47;19971;-78
2023/07/14 01:30:28;;;;;;;;;;;;;;;18.92;56.00;100062.44;1081808;54;19972;-78
2023/07/14 01:31:29;;;;;;;;;;;;;;;18.93;55.79;100065.00;1082442;54;19946;-78
2023/07/14 01:32:33;;;;;;;;;;;;;;;18.98;55.21;100070.66;1082477;39;20675;-78
2023/07/14 01:33:36;;;;;;;;;;;;;;;19.04;54.80;100066.31;1081970;47;19950;-78
2023/07/14 01:34:37;;;;;;;;;;;;;;;19.08;54.94;100066.75;1081937;47;19946;-78
2023/07/14 01:35:42;;;;;;;;;;;;;;;19.10;54.78;100070.91;1081841;54;20030;-78
2023/07/14 01:36:43;;;;;;;;;;;;;;;19.13;54.86;100073.22;1081843;54;19947;-78
2023/07/14 01:37:47;;;;;;;;;;;;;;;19.13;54.84;100075.09;1081763;47;20111;-78
2023/07/14 01:38:48;;;;;;;;;;;;;;;19.15;54.76;100068.47;1082280;54;19947;-78
2023/07/14 01:39:53;;;;;;;;;;;;;;;19.13;55.73;100070.53;1081830;47;20041;-78
2023/07/14 01:40:53;;;;;;;;;;;;;;;18.99;55.99;100076.88;1081626;54;19953;-78
2023/07/14 01:41:57;;;;;;;;;;;;;;;18.95;56.63;100067.50;1081739;51;19946;-78
2023/07/14 01:43:02;;;;;;;;;;;;;;;18.96;56.50;100064.59;1081471;47;19947;-78
2023/07/14 01:44:06;;;;;;;;;;;;;;;18.95;55.87;100072.91;1081687;54;19966;-78
2023/07/14 01:45:09;;;;;;;;;;;;;;;18.96;55.78;100063.75;1081768;47;20046;-78
2023/07/14 01:46:15;;;;;;;;;;;;;;;18.98;55.83;100069.81;1082077;47;19947;-78
2023/07/14 01:47:16;;;;;;;;;;;;;;;19.01;56.35;100061.28;1082566;54;19962;-79
2023/07/14 01:48:21;;;;;;;;;;;;;;;19.00;56.65;100067.72;1083219;31;20466;-78
2023/07/14 01:49:28;;;;;;;;;;;;;;;19.01;56.06;100061.28;1082896;39;20681;-78
2023/07/14 01:50:33;;;;;;;;;;;;;;;18.96;56.40;100055.63;1082678;39;20648;-78
2023/07/14 01:51:38;;;;;;;;;;;;;;;18.94;56.44;100061.22;1082465;54;19951;-78
2023/07/14 01:52:42;;;;;;;;;;;;;;;18.85;57.39;100063.25;1082220;54;19957;-78
2023/07/14 01:53:45;;;;;;;;;;;;;;;18.88;56.92;100055.78;1081944;54;19947;-78
2023/07/14 01:54:52;;;;;;;;;;;;;;;18.89;56.86;100054.75;1082041;54;19957;-78
2023/07/14 01:55:54;;;;;;;;;;;;;;;18.91;56.79;100060.75;1082379;54;19953;-78
2023/07/14 01:57:02;;;;;;;;;;;;;;;18.92;57.16;100051.63;1082200;47;19954;-78
2023/07/14 01:58:10;;;;;;;;;;;;;;;18.91;57.21;100050.78;1082489;47;19990;-80
2023/07/14 01:59:17;;;;;;;;;;;;;;;18.85;57.85;100047.00;1083055;51;19946;-81
2023/07/14 02:00:18;;;;;;;;;;;;;;;18.76;58.42;100053.59;1082271;54;19947;-78
2023/07/14 02:01:22;;;;;;;;;;;;;;;18.76;57.91;100053.59;1082794;39;20249;-78
2023/07/14 02:02:24;;;;;;;;;;;;;;;18.70;58.86;100049.81;1082234;54;20470;-78
2023/07/14 02:03:32;;;;;;;;;;;;;;;18.72;58.44;100049.63;1082428;54;19965;-78
2023/07/14 02:04:36;;;;;;;;;;;;;;;18.74;58.65;100050.25;1082335;54;19998;-78
2023/07/14 02:05:40;;;;;;;;;;;;;;;18.72;58.38;100049.63;1081993;54;19946;-78
2023/07/14 02:06:41;;;;;;;;;;;;;;;18.71;58.52;100050.66;1081804;54;19947;-78
2023/07/14 02:07:46;;;;;;;;;;;;;;;18.71;59.10;100050.66;1081960;47;19947;-78
2023/07/14 02:08:47;;;;;;;;;;;;;;;18.64;58.83;100058.75;1082028;47;20018;-78
2023/07/14 02:09:51;;;;;;;;;;;;;;;18.64;58.77;100057.91;1081729;47;20489;-78
2023/07/14 02:10:52;;;;;;;;;;;;;;;18.62;59.23;100057.25;1081880;54;19957;-78
2023/07/14 02:11:58;;;;;;;;;;;;;;;18.55;59.74;100058.03;1082046;47;20049;-79
2023/07/14 02:12:59;;;;;;;;;;;;;;;18.46;60.09;100064.63;1081911;47;19971;-78
2023/07/14 02:14:05;;;;;;;;;;;;;;;18.42;60.65;100062.53;1081930;54;19957;-78
2023/07/14 02:15:09;;;;;;;;;;;;;;;18.40;60.76;100057.31;1082334;54;19953;-78
2023/07/14 02:16:15;;;;;;;;;;;;;;;18.37;60.92;100060.41;1081912;47;19947;-78
2023/07/14 02:17:21;;;;;;;;;;;;;;;18.27;61.63;100055.34;1081799;54;19974;-78
2023/07/14 02:18:26;;;;;;;;;;;;;;;18.28;61.01;100058.88;1081862;54;19947;-78
2023/07/14 02:19:27;;;;;;;;;;;;;;;18.28;61.23;100062.41;1082147;54;19947;-78
2023/07/14 02:20:33;;;;;;;;;;;;;;;18.22;61.57;100058.63;1082261;54;20846;-78
2023/07/14 02:21:36;;;;;;;;;;;;;;;18.24;61.40;100061.97;1082476;39;20380;-78
2023/07/14 02:22:40;;;;;;;;;;;;;;;18.24;61.03;100055.72;1082082;47;19953;-78
2023/07/14 02:23:41;;;;;;;;;;;;;;;18.25;61.16;100060.09;1082212;54;20505;-78
2023/07/14 02:24:45;;;;;;;;;;;;;;;18.27;61.03;100060.75;1082540;54;20019;-78
2023/07/14 02:25:48;;;;;;;;;;;;;;;18.25;61.15;100057.41;1082701;54;19953;-78
2023/07/14 02:26:55;;;;;;;;;;;;;;;18.29;61.09;100057.84;1082994;39;20674;-79
2023/07/14 02:27:56;;;;;;;;;;;;;;;18.31;60.39;100064.72;1082372;47;20504;-78
2023/07/14 02:28:59;;;;;;;;;;;;;;;18.33;60.81;100064.53;1082581;54;19971;-78
2023/07/14 02:30:09;;;;;;;;;;;;;;;18.29;60.76;100066.78;1082416;54;19950;-79
2023/07/14 02:31:16;;;;;;;;;;;;;;;18.29;61.05;100057.84;1083556;39;20679;-79
2023/07/14 02:32:20;;;;;;;;;;;;;;;18.20;61.75;100059.84;1082128;47;20442;-78
2023/07/14 02:33:27;;;;;;;;;;;;;;;18.17;61.66;100060.25;1082454;54;20498;-78
2023/07/14 02:34:31;;;;;;;;;;;;;;;18.17;61.84;100055.66;1082925;39;20710;-78
2023/07/14 02:35:37;;;;;;;;;;;;;;;18.17;61.18;100061.06;1082183;54;19958;-78
2023/07/14 02:36:42;;;;;;;;;;;;;;;18.18;61.81;100062.75;1082332;47;20008;-78
2023/07/14 02:38:00;;;;;;;;;;;;;;;18.17;60.97;100065.66;1082312;54;20039;-80
2023/07/14 02:39:02;;;;;;;;;;;;;;;18.15;61.34;100060.41;1082548;54;19953;-78
2023/07/14 02:40:07;;;;;;;;;;;;;;;18.13;61.17;100053.53;1082868;54;19950;-79
2023/07/14 02:41:10;;;;;;;;;;;;;;;18.12;61.08;100058.13;1082688;39;20465;-78
2023/07/14 02:42:13;;;;;;;;;;;;;;;18.09;61.04;100064.72;1081946;54;19946;-79
2023/07/14 02:43:16;;;;;;;;;;;;;;;18.06;61.02;100058.88;1081818;54;20458;-78
2023/07/14 02:44:20;;;;;;;;;;;;;;;17.96;61.59;100059.22;1081826;54;20053;-78
2023/07/14 02:45:25;;;;;;;;;;;;;;;17.91;61.59;100057.06;1083801;54;19946;-79
2023/07/14 02:46:31;;;;;;;;;;;;;;;17.93;61.19;100057.72;1083389;39;20808;-79
2023/07/14 08:20:45;;;;;;;;;;;;;;;24.19;42.79;99863.00;1086351;54;19938;-85
2023/07/14 08:21:46;;;;;;;;;;;;;;;24.41;42.53;99863.22;1086981;47;19966;-85
2023/07/14 08:22:49;;;;;;;;;;;;;;;24.61;42.47;99871.00;1086933;47;19943;-89
2023/07/14 08:23:50;;;;;;;;;;;;;;;24.70;41.87;99850.44;1087070;46;19970;-85
2023/07/14 08:24:54;;;;;;;;;;;;;;;24.97;41.45;99858.06;1087000;54;19953;-88
2023/07/14 08:25:56;;;;;;;;;;;;;;;25.13;41.44;99852.88;1086981;46;19943;-90
2023/07/14 08:26:56;;;;;;;;;;;;;;;25.17;40.87;99851.31;1086948;47;20643;-86
2023/07/14 08:28:00;;;;;;;;;;;;;;;25.40;40.67;99844.88;1087054;46;20011;-88
2023/07/14 08:29:00;;;;;;;;;;;;;;;25.55;40.18;99847.03;1087077;54;19942;-87
2023/07/14 08:30:06;;;;;;;;;;;;;;;25.58;40.31;99848.44;1086939;47;19943;-88
2023/07/14 08:31:07;;;;;;;;;;;;;;;25.62;40.26;99844.97;1086865;54;20015;-87
2023/07/14 08:32:11;;;;;;;;;;;;;;;25.68;39.88;99843.13;1086941;47;19966;-89
2023/07/14 08:33:12;;;;;;;;;;;;;;;25.76;39.06;99844.63;1087132;54;19966;-89
2023/07/14 08:34:15;;;;;;;;;;;;;;;25.81;39.55;99844.69;1087306;54;19967;-87
2023/07/14 08:35:16;;;;;;;;;;;;;;;26.04;39.49;99845.59;1089533;39;20783;-87
2023/07/14 08:36:22;;;;;;;;;;;;;;;26.12;39.39;99840.50;1086856;47;19942;-88
2023/07/14 08:37:22;;;;;;;;;;;;;;;26.26;38.85;99840.97;1088771;39;20645;-88
2023/07/14 08:38:27;;;;;;;;;;;;;;;26.41;38.86;99836.78;1086949;47;19951;-85
2023/07/14 08:39:27;;;;;;;;;;;;;;;26.23;37.67;99829.69;1087042;54;20386;-86
2023/07/14 08:40:33;;;;;;;;;;;;;;;26.12;38.14;99831.47;1086948;47;19998;-84
2023/07/14 08:41:38;;;;;;;;;;;;;;;26.05;38.30;99833.56;1087088;46;19950;-84
2023/07/14 08:42:45;;;;;;;;;;;;;;;25.92;38.14;99830.09;1086612;47;19938;-85
2023/07/14 08:43:53;;;;;;;;;;;;;;;25.68;37.92;99827.56;1086869;47;19946;-87
2023/07/14 08:45:03;;;;;;;;;;;;;;;25.71;38.15;99834.44;1087310;54;19943;-85
2023/07/14 08:46:09;;;;;;;;;;;;;;;25.67;37.53;99828.63;1087346;54;19966;-85
2023/07/14 08:47:16;;;;;;;;;;;;;;;25.67;37.84;99831.38;1087017;46;19990;-85
2023/07/14 08:48:30;;;;;;;;;;;;;;;26.03;37.49;99831.03;1087185;54;19942;-87
2023/07/14 08:49:36;;;;;;;;;;;;;;;25.81;37.70;99829.13;1086796;47;19963;-83
2023/07/14 08:50:38;;;;;;;;;;;;;;;25.79;37.88;99834.00;1088445;39;20843;-85
2023/07/14 08:51:46;;;;;;;;;;;;;;;26.09;38.02;99831.97;1087065;54;19970;-86
2023/07/14 08:52:50;;;;;;;;;;;;;;;26.42;37.53;99831.03;1086821;47;20043;-86
2023/07/14 08:53:57;;;;;;;;;;;;;;;26.76;37.18;99821.81;1086862;51;19946;-85
2023/07/14 08:55:01;;;;;;;;;;;;;;;26.92;36.52;99820.09;1087988;39;20805;-86
2023/07/14 08:56:05;;;;;;;;;;;;;;;26.83;36.42;99822.47;1086930;47;19982;-86
2023/07/14 08:57:12;;;;;;;;;;;;;;;26.67;36.38;99817.88;1086782;47;19969;-88
2023/07/14 08:58:18;;;;;;;;;;;;;;;26.62;36.42;99819.50;1086798;47;19939;-85
2023/07/14 08:59:26;;;;;;;;;;;;;;;26.43;35.88;99815.44;1086973;54;19955;-86
2023/07/14 09:00:31;;;;;;;;;;;;;;;26.49;35.76;99816.34;1086952;47;19943;-86
2023/07/14 09:01:35;;;;;;;;;;;;;;;26.55;36.22;99805.16;1087087;54;19942;-87
2023/07/14 09:02:40;;;;;;;;;;;;;;;26.79;35.79;99807.63;1087292;54;19942;-86
2023/07/14 09:03:42;;;;;;;;;;;;;;;26.94;35.75;99812.44;1087254;54;19942;-87
2023/07/14 09:04:45;;;;;;;;;;;;;;;27.23;35.35;99807.50;1086774;47;19939;-87
2023/07/14 09:05:51;;;;;;;;;;;;;;;27.39;33.76;99807.63;1086809;47;19939;-88
2023/07/14 09:06:55;;;;;;;;;;;;;;;27.43;33.67;99799.69;1087071;54;19943;-85
2023/07/14 09:07:58;;;;;;;;;;;;;;;27.22;34.24;99803.09;1088014;46;19977;-85
2023/07/14 09:08:59;;;;;;;;;;;;;;;27.29;34.57;99805.63;1087034;54;19967;-86
2023/07/14 09:10:02;;;;;;;;;;;;;;;26.97;34.86;99802.88;1086812;47;19999;-85
2023/07/14 09:11:10;;;;;;;;;;;;;;;26.87;35.33;99804.44;1086889;47;19942;-86
2023/07/14 09:12:18;;;;;;;;;;;;;;;27.14;35.26;99803.56;1087049;54;19950;-86
2023/07/14 09:13:26;;;;;;;;;;;;;;;27.34;34.78;99804.84;1086828;47;19939;-87
2023/07/14 09:14:34;;;;;;;;;;;;;;;27.25;34.67;99802.56;1086943;47;19946;-86
2023/07/14 09:15:36;;;;;;;;;;;;;;;27.10;34.60;99807.94;1086971;54;19983;-87
2023/07/14 09:16:43;;;;;;;;;;;;;;;27.48;34.55;99800.59;1086849;47;19954;-85
2023/07/14 09:17:50;;;;;;;;;;;;;;;27.78;34.33;99801.06;1086892;47;19942;-86
2023/07/14 09:19:00;;;;;;;;;;;;;;;28.08;33.93;99796.84;1086752;47;19975;-85
2023/07/14 09:20:10;;;;;;;;;;;;;;;28.30;33.54;99800.22;1090675;39;20615;-87
2023/07/14 09:21:18;;;;;;;;;;;;;;;28.40;33.24;99801.34;1087202;54;19943;-89
2023/07/14 09:22:25;;;;;;;;;;;;;;;28.60;32.74;99789.63;1087508;54;19994;-86
2023/07/14 09:23:41;;;;;;;;;;;;;;;28.77;32.67;99784.72;1087256;54;19942;-86
2023/07/14 09:24:46;;;;;;;;;;;;;;;28.87;32.04;99785.84;1088704;31;20800;-85
2023/07/14 09:25:54;;;;;;;;;;;;;;;28.78;32.19;99789.13;1087197;47;19938;-84
2023/07/14 09:26:56;;;;;;;;;;;;;;;28.87;31.91;99786.66;1087194;47;19942;-87
2023/07/14 09:27:59;;;;;;;;;;;;;;;28.78;32.41;99785.53;1086940;54;19942;-86
2023/07/14 09:29:07;;;;;;;;;;;;;;;28.87;32.32;99786.66;1086977;47;19939;-87
2023/07/14 09:30:17;;;;;;;;;;;;;;;28.82;31.98;99778.41;1087803;31;20730;-88
2023/07/14 09:31:23;;;;;;;;;;;;;;;28.55;32.00;99787.69;1086846;47;19939;-87
2023/07/14 09:32:32;;;;;;;;;;;;;;;28.46;32.25;99781.06;1087278;47;19984;-87
2023/07/14 09:33:39;;;;;;;;;;;;;;;28.51;31.90;99785.75;1086810;54;19943;-86
2023/07/14 09:34:45;;;;;;;;;;;;;;;28.50;31.73;99776.66;1086874;46;19958;-86
2023/07/14 09:35:47;;;;;;;;;;;;;;;28.55;31.74;99779.44;1086654;47;19942;-88
2023/07/14 09:36:50;;;;;;;;;;;;;;;28.56;31.46;99775.59;1086737;54;19943;-87
2023/07/14 09:37:57;;;;;;;;;;;;;;;28.46;31.50;99781.88;1086732;54;19943;-86
2023/07/14 09:39:04;;;;;;;;;;;;;;;28.60;31.31;99776.69;1086717;54;19942;-85
2023/07/14 09:40:17;;;;;;;;;;;;;;;28.76;31.11;99779.50;1087233;39;20685;-86
2023/07/14 09:41:22;;;;;;;;;;;;;;;28.88;31.30;99784.75;1086594;54;20035;-85
2023/07/14 09:42:25;;;;;;;;;;;;;;;28.76;30.98;99777.56;1086607;47;19939;-86
2023/07/14 09:43:28;;;;;;;;;;;;;;;28.87;31.13;99783.09;1086822;47;19939;-86
2023/07/14 09:44:29;;;;;;;;;;;;;;;29.09;30.87;99772.66;1086924;47;20723;-84
2023/07/14 09:45:33;;;;;;;;;;;;;;;29.15;30.65;99773.47;1086958;47;19939;-88
2023/07/14 09:46:37;;;;;;;;;;;;;;;28.94;30.17;99786.41;1086804;54;19942;-85
2023/07/14 09:47:40;;;;;;;;;;;;;;;28.90;30.55;99777.88;1086374;47;19965;-84
2023/07/14 09:48:43;;;;;;;;;;;;;;;28.91;30.32;99770.44;1086901;54;19942;-86
2023/07/14 09:49:49;;;;;;;;;;;;;;;29.06;30.17;99773.22;1087413;39;20752;-85
2023/07/14 09:50:54;;;;;;;;;;;;;;;29.39;29.89;99768.25;1087042;46;20707;-86
2023/07/14 09:52:18;;;;;;;;;;;;;;;29.40;29.88;99761.66;1087041;54;19998;-85
2023/07/14 09:53:22;;;;;;;;;;;;;;;29.46;29.67;99767.97;1086912;47;19943;-87
2023/07/14 09:54:23;;;;;;;;;;;;;;;29.61;29.74;99761.63;1087186;47;19969;-87
2023/07/14 09:55:27;;;;;;;;;;;;;;;29.71;29.42;99764.34;1087346;46;19945;-85
2023/07/14 09:56:29;;;;;;;;;;;;;;;29.92;29.22;99756.03;1087161;54;19950;-88
2023/07/14 09:57:34;;;;;;;;;;;;;;;29.94;29.22;99764.03;1086796;47;20952;-85
2023/07/14 09:58:35;;;;;;;;;;;;;;;30.14;28.51;99758.44;1086390;47;20701;-84
2023/07/14 09:59:51;;;;;;;;;;;;;;;30.36;27.92;99754.47;1086412;46;20826;-85
2023/07/14 10:00:54;;;;;;;;;;;;;;;30.46;27.98;99753.59;1087273;47;19938;-86
2023/07/14 10:01:59;;;;;;;;;;;;;;;30.55;27.46;99762.13;1087019;54;19943;-85
2023/07/14 10:03:06;;;;;;;;;;;;;;;30.42;26.82;99758.84;1086974;47;21203;-84
2023/07/14 10:04:15;;;;;;;;;;;;;;;30.10;26.25;99756.53;1087042;47;19953;-85
2023/07/14 10:05:24;;;;;;;;;;;;;;;30.17;25.65;99762.56;1087063;54;20072;-85
2023/07/14 10:06:30;;;;;;;;;;;;;;;30.30;25.76;99759.19;1087219;46;19938;-84
2023/07/14 10:07:33;;;;;;;;;;;;;;;30.10;25.77;99751.84;1087093;46;19964;-84
2023/07/14 10:08:45;;;;;;;;;;;;;;;29.76;26.20;99755.25;1086907;54;19954;-85
2023/07/14 10:09:54;;;;;;;;;;;;;;;29.90;25.81;99747.22;1087105;46;19943;-86
2023/07/14 10:10:59;;;;;;;;;;;;;;;29.97;26.14;99753.28;1086883;47;19990;-85
2023/07/14 10:12:03;;;;;;;;;;;;;;;29.87;26.26;99756.03;1087029;54;19943;-84
2023/07/14 10:13:15;;;;;;;;;;;;;;;29.81;26.46;99748.91;1086917;46;19939;-86
2023/07/14 10:14:25;;;;;;;;;;;;;;;29.73;26.41;99748.38;1087009;54;20052;-87
2023/07/14 10:15:30;;;;;;;;;;;;;;;29.61;26.23;99756.09;1086972;47;19939;-84
2023/07/14 10:16:34;;;;;;;;;;;;;;;29.75;26.19;99739.00;1086823;46;19975;-83
2023/07/14 10:17:40;;;;;;;;;;;;;;;29.82;26.23;99750.53;1086976;47;19994;-82
2023/07/14 10:18:48;;;;;;;;;;;;;;;29.66;26.08;99753.31;1086979;46;19990;-85
2023/07/14 10:19:53;;;;;;;;;;;;;;;29.76;26.32;99743.41;1089354;39;20953;-83
2023/07/14 10:20:56;;;;;;;;;;;;;;;29.73;26.46;99740.13;1086955;54;19978;-84
2023/07/14 10:22:01;;;;;;;;;;;;;;;29.73;26.04;99737.34;1086457;47;19969;-84
2023/07/14 10:23:02;;;;;;;;;;;;;;;29.72;26.13;99741.22;1086951;47;19939;-83
2023/07/14 10:24:18;;;;;;;;;;;;;;;29.60;26.28;99737.94;1086911;47;19973;-84
2023/07/14 10:25:19;;;;;;;;;;;;;;;29.57;26.18;99733.81;1086919;54;19942;-83
2023/07/14 10:26:25;;;;;;;;;;;;;;;29.50;26.57;99732.44;1088414;39;20229;-82
2023/07/14 10:27:27;;;;;;;;;;;;;;;29.59;26.71;99736.28;1087074;47;20007;-83
2023/07/14 10:28:32;;;;;;;;;;;;;;;29.57;26.53;99727.47;1086971;54;19949;-84
2023/07/14 10:29:44;;;;;;;;;;;;;;;29.39;26.72;99732.47;1087069;47;20014;-85
2023/07/14 10:30:58;;;;;;;;;;;;;;;29.41;26.59;99722.00;1087020;54;19942;-84
2023/07/14 10:32:01;;;;;;;;;;;;;;;29.33;27.04;99727.28;1087146;54;19942;-86
2023/07/14 10:33:08;;;;;;;;;;;;;;;29.51;26.70;99721.19;1087147;54;19943;-86
2023/07/14 10:34:15;;;;;;;;;;;;;;;29.52;26.80;99725.56;1086898;54;19943;-85
2023/07/14 10:35:21;;;;;;;;;;;;;;;29.70;26.73;99721.38;1086945;47;19963;-84
2023/07/14 10:36:25;;;;;;;;;;;;;;;29.57;26.73;99727.47;1087623;39;20646;-84
2023/07/14 10:37:30;;;;;;;;;;;;;;;29.64;26.09;99732.69;1087218;47;19939;-84
2023/07/14 10:38:35;;;;;;;;;;;;;;;29.68;25.94;99723.59;1087127;47;20010;-82
2023/07/14 10:39:45;;;;;;;;;;;;;;;29.70;25.82;99726.09;1089090;39;20905;-83
2023/07/14 10:40:48;;;;;;;;;;;;;;;29.80;25.92;99714.19;1087134;54;19943;-84
2023/07/14 10:41:49;;;;;;;;;;;;;;;29.76;25.43;99718.63;1086791;47;19938;-83
2023/07/14 10:42:56;;;;;;;;;;;;;;;29.68;25.97;99723.59;1086965;46;20057;-82
2023/07/14 10:43:59;;;;;;;;;;;;;;;29.71;25.81;99717.53;1086957;47;20263;-85
2023/07/14 10:45:03;;;;;;;;;;;;;;;29.87;25.59;99720.22;1086869;47;19938;-86
2023/07/14 10:46:06;;;;;;;;;;;;;;;29.86;25.59;99713.06;1086873;47;19938;-84
2023/07/14 10:47:14;;;;;;;;;;;;;;;29.92;25.48;99717.47;1086823;54;19942;-86
2023/07/14 10:48:17;;;;;;;;;;;;;;;29.92;25.69;99716.63;1086848;47;19945;-84
2023/07/14 10:49:25;;;;;;;;;;;;;;;30.01;25.47;99713.03;1087784;39;21070;-83
2023/07/14 10:50:29;;;;;;;;;;;;;;;30.02;25.52;99711.09;1086978;54;20032;-85
2023/07/14 10:51:35;;;;;;;;;;;;;;;29.59;26.01;99707.94;1086907;47;19969;-85
2023/07/14 10:52:38;;;;;;;;;;;;;;;29.44;25.99;99711.56;1086794;47;20007;-83
2023/07/14 10:53:45;;;;;;;;;;;;;;;29.31;26.13;99713.75;1086819;47;19978;-83
2023/07/14 10:54:52;;;;;;;;;;;;;;;29.18;26.35;99714.31;1086977;47;19945;-84
2023/07/14 10:55:58;;;;;;;;;;;;;;;29.16;26.22;99722.03;1086948;54;19946;-84
2023/07/14 10:57:03;;;;;;;;;;;;;;;29.41;26.26;99716.50;1086694;47;19946;-84
2023/07/14 10:58:08;;;;;;;;;;;;;;;29.29;25.83;99706.88;1086927;47;20022;-83
2023/07/14 10:59:15;;;;;;;;;;;;;;;29.19;26.12;99710.47;1089464;39;20251;-84
2023/07/14 11:00:19;;;;;;;;;;;;;;;29.40;26.03;99706.59;1086718;47;19951;-83
2023/07/14 11:01:29;;;;;;;;;;;;;;;29.59;25.99;99708.75;1086801;47;20001;-84
2023/07/14 11:02:35;;;;;;;;;;;;;;;29.34;25.83;99713.22;1088829;39;20768;-83
2023/07/14 11:03:42;;;;;;;;;;;;;;;29.34;25.99;99710.47;1086845;47;20026;-82
2023/07/14 11:04:44;;;;;;;;;;;;;;;29.59;25.37;99708.75;1086738;47;19964;-81
2023/07/14 11:05:53;;;;;;;;;;;;;;;29.64;25.76;99700.50;1086898;47;19969;-84
2023/07/14 11:06:55;;;;;;;;;;;;;;;29.48;26.32;99701.63;1087016;47;19942;-87